createdAt,value
2023-04-07T00:01:33.237Z,101137.81
2023-04-07T00:04:00.296Z,101135.09
2023-04-07T00:06:27.476Z,101142.16
2023-04-07T00:08:54.348Z,101143.00
2023-04-07T00:11:21.097Z,101144.72
2023-04-07T00:13:47.831Z,101137.63
2023-04-07T00:16:14.644Z,101139.34
2023-04-07T00:18:41.679Z,101146.38
2023-04-07T00:21:08.592Z,101137.50
2023-04-07T00:23:36.048Z,101144.50
2023-04-07T00:26:02.844Z,101148.03
2023-04-07T00:28:29.591Z,101139.16
2023-04-07T00:30:56.426Z,101147.94
2023-04-07T00:33:23.208Z,101136.44
2023-04-07T00:35:50.009Z,101140.81
2023-04-07T00:38:17.056Z,101134.63
2023-04-07T00:40:43.816Z,101141.63
2023-04-07T00:43:10.668Z,101138.94
2023-04-07T00:45:37.962Z,101138.88
2023-04-07T00:48:05.685Z,101138.84
2023-04-07T00:50:32.644Z,101143.19
2023-04-07T00:52:59.471Z,101137.03
2023-04-07T00:55:26.217Z,101127.28
2023-04-07T00:57:53.007Z,101130.72
2023-04-07T01:00:19.931Z,101130.69
2023-04-07T01:03:10.907Z,101129.78
2023-04-07T01:05:53.365Z,101135.03
2023-04-07T01:08:50.377Z,101120.75
2023-04-07T01:11:48.271Z,101125.97
2023-04-07T01:14:17.318Z,101137.38
2023-04-07T01:16:49.716Z,101121.50
2023-04-07T01:19:30.143Z,101128.50
2023-04-07T01:21:59.021Z,101133.72
2023-04-07T01:25:03.825Z,101137.16
2023-04-07T01:27:43.954Z,101133.56
2023-04-07T01:30:13.120Z,101133.53
2023-04-07T01:32:45.692Z,101136.13
2023-04-07T01:35:13.834Z,101136.09
2023-04-07T01:37:41.559Z,101135.13
2023-04-07T01:40:09.332Z,101135.13
2023-04-07T01:42:38.439Z,101128.94
2023-04-07T01:45:07.219Z,101129.78
2023-04-07T01:47:37.410Z,101136.78
2023-04-07T01:50:05.754Z,101140.28
2023-04-07T01:52:35.125Z,101133.22
2023-04-07T01:55:03.905Z,101137.56
2023-04-07T01:57:30.831Z,101135.78
2023-04-07T01:59:57.613Z,101134.00
2023-04-07T02:02:24.649Z,101128.72
2023-04-07T02:05:03.233Z,101127.75
2023-04-07T02:07:41.172Z,101133.88
2023-04-07T02:10:13.628Z,101132.09
2023-04-07T02:12:41.745Z,101135.53
2023-04-07T02:15:13.481Z,101137.28
2023-04-07T02:17:49.085Z,101141.66
2023-04-07T02:20:17.795Z,101131.03
2023-04-07T02:22:44.919Z,101131.00
2023-04-07T02:25:29.076Z,101134.50
2023-04-07T02:27:58.075Z,101131.78
2023-04-07T02:30:25.976Z,101130.88
2023-04-07T02:32:53.295Z,101127.34
2023-04-07T02:35:20.419Z,101131.69
2023-04-07T02:37:47.649Z,101135.19
2023-04-07T02:40:15.690Z,101133.41
2023-04-07T02:42:42.911Z,101133.38
2023-04-07T02:45:10.916Z,101136.84
2023-04-07T02:47:38.794Z,101137.66
2023-04-07T02:50:06.506Z,101142.88
2023-04-07T02:52:33.265Z,101142.84
2023-04-07T02:55:00.951Z,101141.06
2023-04-07T02:57:27.728Z,101141.91
2023-04-07T02:59:56.041Z,101139.22
2023-04-07T03:02:22.999Z,101138.28
2023-04-07T03:04:52.742Z,101134.72
2023-04-07T03:07:19.597Z,101132.03
2023-04-07T03:09:46.536Z,101138.13
2023-04-07T03:12:13.298Z,101138.13
2023-04-07T03:14:40.074Z,101126.63
2023-04-07T03:17:06.987Z,101138.03
2023-04-07T03:19:33.824Z,101132.72
2023-04-07T03:22:00.657Z,101137.06
2023-04-07T03:24:27.419Z,101137.00
2023-04-07T03:26:54.157Z,101125.53
2023-04-07T03:29:20.962Z,101131.66
2023-04-07T03:31:47.748Z,101138.66
2023-04-07T03:34:14.491Z,101135.13
2023-04-07T03:36:41.246Z,101137.72
2023-04-07T03:39:08.010Z,101135.94
2023-04-07T03:41:34.887Z,101141.16
2023-04-07T03:44:01.660Z,101132.38
2023-04-07T03:46:28.584Z,101145.53
2023-04-07T03:48:55.397Z,101149.00
2023-04-07T03:51:22.388Z,101141.06
2023-04-07T03:53:49.189Z,101148.94
2023-04-07T03:56:16.142Z,101140.13
2023-04-07T03:58:42.930Z,101138.34
2023-04-07T04:01:09.742Z,101148.88
2023-04-07T04:03:36.697Z,101140.88
2023-04-07T04:06:03.721Z,101152.25
2023-04-07T04:08:30.997Z,101157.53
2023-04-07T04:10:57.775Z,101151.31
2023-04-07T04:13:24.541Z,101157.44
2023-04-07T04:15:52.168Z,101159.16
2023-04-07T04:18:18.954Z,101155.59
2023-04-07T04:20:45.718Z,101158.22
2023-04-07T04:23:12.495Z,101152.03
2023-04-07T04:25:41.815Z,101162.50
2023-04-07T04:28:08.555Z,101159.81
2023-04-07T04:30:35.379Z,101162.41
2023-04-07T04:33:02.999Z,101165.84
2023-04-07T04:35:29.883Z,101173.69
2023-04-07T04:37:56.692Z,101177.19
2023-04-07T04:40:23.444Z,101178.88
2023-04-07T04:42:50.455Z,101182.34
2023-04-07T04:45:17.326Z,101183.19
2023-04-07T04:47:44.284Z,101190.13
2023-04-07T04:50:11.191Z,101188.34
2023-04-07T04:52:39.103Z,101188.28
2023-04-07T04:55:06.668Z,101189.97
2023-04-07T04:57:35.955Z,101191.72
2023-04-07T05:00:04.321Z,101194.28
2023-04-07T05:02:31.396Z,101183.72
2023-04-07T05:04:58.427Z,101189.88
2023-04-07T05:07:25.394Z,101186.34
2023-04-07T05:09:52.136Z,101195.13
2023-04-07T05:12:18.886Z,101193.41
2023-04-07T05:14:45.681Z,101196.13
2023-04-07T05:17:12.475Z,101196.22
2023-04-07T05:19:39.350Z,101196.34
2023-04-07T05:22:06.181Z,101192.03
2023-04-07T05:24:32.928Z,101197.41
2023-04-07T05:26:59.704Z,101198.31
2023-04-07T05:29:26.446Z,101197.63
2023-04-07T05:31:53.263Z,101199.59
2023-04-07T05:34:20.064Z,101197.09
2023-04-07T05:36:46.827Z,101204.31
2023-04-07T05:39:13.574Z,101199.22
2023-04-07T05:41:40.419Z,101201.25
2023-04-07T05:44:07.183Z,101206.78
2023-04-07T05:46:33.970Z,101198.31
2023-04-07T05:49:16.689Z,101200.41
2023-04-07T05:51:47.510Z,101213.06
2023-04-07T05:54:15.588Z,101208.22
2023-04-07T05:56:42.402Z,101209.56
2023-04-07T05:59:09.210Z,101213.44
2023-04-07T06:01:36.004Z,101212.03
2023-04-07T06:04:03.569Z,101218.44
2023-04-07T06:06:31.325Z,101210.72
2023-04-07T06:08:58.168Z,101214.50
2023-04-07T06:11:27.211Z,101212.94
2023-04-07T06:13:53.949Z,101221.13
2023-04-07T06:16:20.761Z,101222.31
2023-04-07T06:18:47.633Z,101220.72
2023-04-07T06:21:14.435Z,101220.88
2023-04-07T06:23:41.190Z,101221.91
2023-04-07T06:26:11.913Z,101227.34
2023-04-07T06:28:39.528Z,101218.53
2023-04-07T06:31:07.131Z,101219.47
2023-04-07T06:33:33.972Z,101222.13
2023-04-07T06:36:00.853Z,101226.53
2023-04-07T06:38:27.663Z,101232.69
2023-04-07T06:40:54.482Z,101231.75
2023-04-07T06:43:21.326Z,101242.34
2023-04-07T06:45:48.179Z,101237.94
2023-04-07T06:48:15.435Z,101234.34
2023-04-07T06:50:42.627Z,101237.00
2023-04-07T06:53:09.394Z,101250.31
2023-04-07T06:55:36.320Z,101246.78
2023-04-07T06:58:03.106Z,101244.13
2023-04-07T07:00:30.972Z,101245.03
2023-04-07T07:02:58.156Z,101243.31
2023-04-07T07:05:25.478Z,101249.66
2023-04-07T07:07:52.218Z,101247.09
2023-04-07T07:10:20.503Z,101248.00
2023-04-07T07:12:47.291Z,101250.72
2023-04-07T07:15:14.105Z,101253.38
2023-04-07T07:17:41.417Z,101253.41
2023-04-07T07:20:09.236Z,101248.06
2023-04-07T07:22:36.232Z,101256.88
2023-04-07T07:25:03.381Z,101252.38
2023-04-07T07:27:30.227Z,101254.06
2023-04-07T07:29:57.002Z,101260.06
2023-04-07T07:32:23.817Z,101252.75
2023-04-07T07:34:50.769Z,101254.41
2023-04-07T07:37:17.547Z,101256.19
2023-04-07T07:39:44.300Z,101264.13
2023-04-07T07:42:11.108Z,101260.47
2023-04-07T07:44:37.868Z,101264.81
2023-04-07T07:47:04.711Z,101258.50
2023-04-07T07:49:31.989Z,101269.97
2023-04-07T07:51:59.683Z,101271.66
2023-04-07T07:54:26.498Z,101268.00
2023-04-07T07:56:54.301Z,101266.84
2023-04-07T07:59:21.453Z,101271.03
2023-04-07T08:01:48.255Z,101274.41
2023-04-07T08:04:15.380Z,101269.84
2023-04-07T08:06:42.771Z,101275.00
2023-04-07T08:09:09.578Z,101275.06
2023-04-07T08:11:36.601Z,101270.72
2023-04-07T08:14:03.381Z,101269.91
2023-04-07T08:16:30.525Z,101272.66
2023-04-07T08:18:57.315Z,101262.06
2023-04-07T08:21:24.077Z,101275.47
2023-04-07T08:23:51.099Z,101275.66
2023-04-07T08:26:18.052Z,101282.09
2023-04-07T08:28:44.793Z,101285.78
2023-04-07T08:31:11.643Z,101287.69
2023-04-07T08:33:38.409Z,101286.03
2023-04-07T08:36:05.762Z,101283.44
2023-04-07T08:38:32.644Z,101289.72
2023-04-07T08:41:07.211Z,101284.41
2023-04-07T08:43:36.887Z,101286.19
2023-04-07T08:46:04.079Z,101289.75
2023-04-07T08:48:34.058Z,101291.53
2023-04-07T08:51:06.262Z,101283.53
2023-04-07T08:53:43.218Z,101294.19
2023-04-07T08:56:12.904Z,101294.19
2023-04-07T08:58:40.227Z,101295.97
2023-04-07T09:01:09.341Z,101301.28
2023-04-07T09:03:36.585Z,101299.50
2023-04-07T09:06:03.944Z,101299.47
2023-04-07T09:08:30.754Z,101297.69
2023-04-07T09:10:58.105Z,101303.00
2023-04-07T09:13:25.588Z,101298.59
2023-04-07T09:15:52.402Z,101295.97
2023-04-07T09:18:19.793Z,101291.59
2023-04-07T09:20:59.554Z,101289.81
2023-04-07T09:23:38.744Z,101293.38
2023-04-07T09:26:27.067Z,101302.28
2023-04-07T09:29:03.001Z,101299.56
2023-04-07T09:31:48.339Z,101302.19
2023-04-07T09:34:31.443Z,101312.88
2023-04-07T09:36:59.136Z,101296.91
2023-04-07T09:39:26.309Z,101301.31
2023-04-07T09:41:53.405Z,101303.03
2023-04-07T09:44:22.029Z,101309.28
2023-04-07T09:46:54.445Z,101300.34
2023-04-07T09:49:21.550Z,101310.94
2023-04-07T09:52:00.647Z,101309.16
2023-04-07T09:54:38.981Z,101309.19
2023-04-07T09:57:09.287Z,101311.00
2023-04-07T09:59:44.604Z,101305.66
2023-04-07T10:02:12.468Z,101307.44
2023-04-07T10:04:40.431Z,101310.09
2023-04-07T10:07:07.414Z,101305.63
2023-04-07T10:09:34.285Z,101303.81
2023-04-07T10:12:01.111Z,101304.69
2023-04-07T10:14:32.009Z,101302.88
2023-04-07T10:17:04.474Z,101293.91
2023-04-07T10:19:36.124Z,101303.66
2023-04-07T10:22:05.413Z,101303.63
2023-04-07T10:25:12.182Z,101301.84
2023-04-07T10:27:50.663Z,101308.03
2023-04-07T10:30:25.595Z,101308.91
2023-04-07T10:32:54.390Z,101308.03
2023-04-07T10:35:21.951Z,101306.25
2023-04-07T10:38:07.434Z,101309.81
2023-04-07T10:40:35.823Z,101312.44
2023-04-07T10:43:02.990Z,101308.88
2023-04-07T10:45:54.449Z,101315.94
2023-04-07T10:48:21.829Z,101307.00
2023-04-07T10:51:07.980Z,101312.34
2023-04-07T10:53:35.069Z,101314.97
2023-04-07T10:56:02.256Z,101315.75
2023-04-07T10:58:33.388Z,101305.94
2023-04-07T11:01:00.443Z,101313.03
2023-04-07T11:03:30.381Z,101304.13
2023-04-07T11:06:11.826Z,101306.81
2023-04-07T11:08:44.058Z,101295.28
2023-04-07T11:11:14.895Z,101310.38
2023-04-07T11:13:50.894Z,101307.69
2023-04-07T11:16:20.696Z,101305.88
2023-04-07T11:18:47.931Z,101320.09
2023-04-07T11:21:19.596Z,101296.94
2023-04-07T11:23:48.442Z,101300.47
2023-04-07T11:26:15.975Z,101301.28
2023-04-07T11:28:52.731Z,101304.81
2023-04-07T11:31:24.940Z,101308.31
2023-04-07T11:33:59.925Z,101310.97
2023-04-07T11:36:39.798Z,101311.88
2023-04-07T11:39:18.381Z,101304.69
2023-04-07T11:41:50.200Z,101307.34
2023-04-07T11:44:17.237Z,101300.16
2023-04-07T11:47:04.890Z,101301.91
2023-04-07T11:49:32.350Z,101303.63
2023-04-07T11:52:06.666Z,101298.22
2023-04-07T11:54:47.285Z,101305.31
2023-04-07T11:57:14.805Z,101304.44
2023-04-07T11:59:42.093Z,101308.00
2023-04-07T12:02:09.515Z,101288.41
2023-04-07T12:04:39.720Z,101299.06
2023-04-07T12:07:11.706Z,101297.19
2023-04-07T12:09:40.254Z,101296.22
2023-04-07T12:12:08.520Z,101301.50
2023-04-07T12:14:36.019Z,101298.72
2023-04-07T12:17:03.846Z,101296.84
2023-04-07T12:19:35.876Z,101302.94
2023-04-07T12:22:04.301Z,101302.84
2023-04-07T12:24:32.407Z,101292.94
2023-04-07T12:26:59.508Z,101300.00
2023-04-07T12:29:26.333Z,101297.31
2023-04-07T12:31:53.130Z,101298.16
2023-04-07T12:34:19.968Z,101291.00
2023-04-07T12:36:46.806Z,101289.16
2023-04-07T12:39:13.631Z,101296.34
2023-04-07T12:41:40.382Z,101289.22
2023-04-07T12:44:07.382Z,101298.13
2023-04-07T12:46:34.237Z,101296.28
2023-04-07T12:49:01.275Z,101303.41
2023-04-07T12:51:28.425Z,101301.59
2023-04-07T12:53:55.217Z,101299.78
2023-04-07T12:56:22.320Z,101295.25
2023-04-07T12:58:49.111Z,101300.53
2023-04-07T13:01:16.622Z,101293.31
2023-04-07T13:03:43.927Z,101304.75
2023-04-07T13:06:11.524Z,101299.31
2023-04-07T13:08:39.355Z,101298.41
2023-04-07T13:11:06.626Z,101297.47
2023-04-07T13:13:34.045Z,101292.09
2023-04-07T13:16:01.188Z,101294.66
2023-04-07T13:18:27.969Z,101289.22
2023-04-07T13:21:26.395Z,101284.66
2023-04-07T13:23:43.958Z,101290.75
2023-04-07T13:26:11.335Z,101295.19
2023-04-07T13:28:38.703Z,101297.88
2023-04-07T13:31:05.530Z,101294.38
2023-04-07T13:33:32.287Z,101300.63
2023-04-07T13:35:59.096Z,101293.50
2023-04-07T13:38:26.305Z,101288.06
2023-04-07T13:40:53.088Z,101284.41
2023-04-07T13:43:20.116Z,101291.53
2023-04-07T13:45:48.454Z,101287.06
2023-04-07T13:48:15.750Z,101283.44
2023-04-07T13:50:42.546Z,101292.34
2023-04-07T13:53:09.310Z,101292.34
2023-04-07T13:55:36.666Z,101295.00
2023-04-07T13:58:03.486Z,101299.47
2023-04-07T14:00:30.532Z,101297.72
2023-04-07T14:02:57.414Z,101294.13
2023-04-07T14:05:24.697Z,101294.13
2023-04-07T14:07:51.496Z,101287.88
2023-04-07T14:10:18.417Z,101286.06
2023-04-07T14:12:45.196Z,101286.00
2023-04-07T14:15:12.012Z,101277.00
2023-04-07T14:17:38.879Z,101283.16
2023-04-07T14:20:06.539Z,101294.75
2023-04-07T14:22:33.326Z,101286.75
2023-04-07T14:25:00.429Z,101280.53
2023-04-07T14:27:31.128Z,101282.25
2023-04-07T14:29:59.404Z,101278.63
2023-04-07T14:32:29.394Z,101278.69
2023-04-07T14:34:56.609Z,101284.13
2023-04-07T14:37:26.231Z,101287.78
2023-04-07T14:40:02.674Z,101281.59
2023-04-07T14:42:30.824Z,101299.56
2023-04-07T14:44:59.036Z,101281.81
2023-04-07T14:47:26.350Z,101282.78
2023-04-07T14:49:53.741Z,101292.59
2023-04-07T14:52:22.211Z,101291.69
2023-04-07T14:54:49.510Z,101292.59
2023-04-07T14:57:16.938Z,101300.66
2023-04-07T14:59:44.091Z,101290.81
2023-04-07T15:02:11.114Z,101298.84
2023-04-07T15:04:38.466Z,101294.31
2023-04-07T15:07:05.390Z,101289.84
2023-04-07T15:09:32.195Z,101284.41
2023-04-07T15:12:00.340Z,101298.69
2023-04-07T15:14:27.162Z,101298.66
2023-04-07T15:16:54.004Z,101300.44
2023-04-07T15:19:20.766Z,101296.81
2023-04-07T15:21:47.547Z,101293.31
2023-04-07T15:24:16.291Z,101297.88
2023-04-07T15:26:43.442Z,101309.56
2023-04-07T15:29:10.298Z,101294.47
2023-04-07T15:31:37.107Z,101296.34
2023-04-07T15:34:03.957Z,101303.47
2023-04-07T15:36:31.402Z,101304.44
2023-04-07T15:39:03.925Z,101302.66
2023-04-07T15:41:30.766Z,101300.09
2023-04-07T15:44:00.306Z,101304.59
2023-04-07T15:46:27.506Z,101303.78
2023-04-07T15:48:54.290Z,101319.91
2023-04-07T15:51:21.126Z,101313.75
2023-04-07T15:53:48.184Z,101312.03
2023-04-07T15:56:15.274Z,101308.53
2023-04-07T15:58:42.049Z,101313.91
2023-04-07T16:01:09.080Z,101309.44
2023-04-07T16:03:35.998Z,101316.59
2023-04-07T16:06:02.880Z,101305.06
2023-04-07T16:08:29.630Z,101311.38
2023-04-07T16:10:56.393Z,101315.88
2023-04-07T16:13:23.197Z,101322.16
2023-04-07T16:15:49.973Z,101323.09
2023-04-07T16:18:16.960Z,101324.00
2023-04-07T16:20:43.733Z,101323.19
2023-04-07T16:23:10.682Z,101327.72
2023-04-07T16:25:37.483Z,101332.22
2023-04-07T16:28:04.247Z,101341.22
2023-04-07T16:30:31.109Z,101337.72
2023-04-07T16:33:00.049Z,101339.56
2023-04-07T16:35:26.927Z,101339.63
2023-04-07T16:37:54.805Z,101340.59
2023-04-07T16:40:21.592Z,101350.47
2023-04-07T16:42:48.368Z,101350.53
2023-04-07T16:45:15.177Z,101343.50
2023-04-07T16:47:44.702Z,101364.00
2023-04-07T16:50:11.967Z,101357.84
2023-04-07T16:52:38.760Z,101368.56
2023-04-07T16:55:06.098Z,101364.19
2023-04-07T16:57:32.897Z,101366.88
2023-04-07T16:59:59.757Z,101371.41
2023-04-07T17:02:27.582Z,101381.28
2023-04-07T17:04:54.613Z,101376.88
2023-04-07T17:07:21.377Z,101388.53
2023-04-07T17:09:48.139Z,101385.03
2023-04-07T17:12:14.986Z,101394.91
2023-04-07T17:14:41.739Z,101399.41
2023-04-07T17:17:08.487Z,101398.56
2023-04-07T17:19:35.648Z,101403.09
2023-04-07T17:22:02.477Z,101412.09
2023-04-07T17:24:29.229Z,101426.41
2023-04-07T17:26:55.963Z,101419.34
2023-04-07T17:29:28.668Z,101430.97
2023-04-07T17:31:58.546Z,101431.03
2023-04-07T17:34:25.683Z,101432.03
2023-04-07T17:36:52.468Z,101447.16
2023-04-07T17:39:19.300Z,101449.00
2023-04-07T17:41:47.519Z,101453.50
2023-04-07T17:44:14.364Z,101456.19
2023-04-07T17:46:41.248Z,101455.38
2023-04-07T17:49:08.079Z,101467.84
2023-04-07T17:51:34.842Z,101468.75
2023-04-07T17:54:01.768Z,101466.06
2023-04-07T17:56:28.671Z,101472.31
2023-04-07T17:58:55.630Z,101475.00
2023-04-07T18:01:22.499Z,101475.91
2023-04-07T18:03:49.735Z,101486.53
2023-04-07T18:06:17.747Z,101484.81
2023-04-07T18:08:48.171Z,101492.78
2023-04-07T18:11:16.066Z,101488.34
2023-04-07T18:13:42.952Z,101494.56
2023-04-07T18:16:11.723Z,101495.44
2023-04-07T18:18:38.722Z,101491.00
2023-04-07T18:21:08.761Z,101501.63
2023-04-07T18:23:36.695Z,101501.66
2023-04-07T18:26:06.749Z,101500.72
2023-04-07T18:28:34.631Z,101512.28
2023-04-07T18:31:07.517Z,101499.88
2023-04-07T18:33:36.123Z,101514.91
2023-04-07T18:36:06.947Z,101522.03
2023-04-07T18:38:35.340Z,101522.00
2023-04-07T18:41:02.275Z,101528.22
2023-04-07T18:43:29.906Z,101523.78
2023-04-07T18:45:56.843Z,101530.84
2023-04-07T18:48:23.634Z,101536.09
2023-04-07T18:50:55.374Z,101540.53
2023-04-07T18:53:23.816Z,101544.94
2023-04-07T18:55:51.294Z,101544.06
2023-04-07T18:58:19.172Z,101559.09
2023-04-07T19:00:47.324Z,101554.63
2023-04-07T19:03:14.347Z,101558.16
2023-04-07T19:05:42.014Z,101556.31
2023-04-07T19:08:09.112Z,101565.16
2023-04-07T19:10:35.936Z,101571.31
2023-04-07T19:13:03.425Z,101579.25
2023-04-07T19:15:38.203Z,101573.94
2023-04-07T19:18:05.200Z,101573.88
2023-04-07T19:20:33.511Z,101587.16
2023-04-07T19:23:01.450Z,101583.63
2023-04-07T19:25:28.292Z,101588.03
2023-04-07T19:27:55.085Z,101586.25
2023-04-07T19:30:21.887Z,101595.13
2023-04-07T19:32:48.833Z,101592.47
2023-04-07T19:35:16.614Z,101603.09
2023-04-07T19:37:43.382Z,101596.88
2023-04-07T19:40:10.895Z,101602.16
2023-04-07T19:42:39.332Z,101601.25
2023-04-07T19:45:08.158Z,101610.09
2023-04-07T19:47:35.917Z,101604.75
2023-04-07T19:50:04.113Z,101615.38
2023-04-07T19:52:34.205Z,101610.03
2023-04-07T19:55:03.667Z,101613.53
2023-04-07T19:57:31.489Z,101611.75
2023-04-07T19:59:58.277Z,101624.09
2023-04-07T20:02:25.235Z,101624.06
2023-04-07T20:04:53.067Z,101624.91
2023-04-07T20:07:19.920Z,101631.06
2023-04-07T20:09:46.824Z,101626.59
2023-04-07T20:12:14.785Z,101630.94
2023-04-07T20:14:41.617Z,101628.25
2023-04-07T20:17:08.565Z,101635.28
2023-04-07T20:19:35.401Z,101636.16
2023-04-07T20:22:02.168Z,101635.25
2023-04-07T20:24:28.930Z,101640.53
2023-04-07T20:26:55.871Z,101640.53
2023-04-07T20:29:22.614Z,101636.09
2023-04-07T20:31:49.724Z,101640.50
2023-04-07T20:34:16.561Z,101636.97
2023-04-07T20:36:43.467Z,101655.56
2023-04-07T20:39:10.269Z,101652.84
2023-04-07T20:41:37.456Z,101648.41
2023-04-07T20:44:04.344Z,101651.91
2023-04-07T20:46:33.318Z,101654.56
2023-04-07T20:49:00.201Z,101657.22
2023-04-07T20:51:27.194Z,101654.53
2023-04-07T20:53:53.992Z,101658.97
2023-04-07T20:56:21.595Z,101653.66
2023-04-07T20:58:48.681Z,101667.78
2023-04-07T21:01:15.661Z,101657.16
2023-04-07T21:03:42.904Z,101669.50
2023-04-07T21:06:09.719Z,101666.84
2023-04-07T21:08:36.474Z,101670.34
2023-04-07T21:11:03.269Z,101670.31
2023-04-07T21:13:30.267Z,101671.19
2023-04-07T21:15:59.105Z,101668.44
2023-04-07T21:18:27.136Z,101675.53
2023-04-07T21:20:57.523Z,101679.97
2023-04-07T21:23:24.366Z,101679.03
2023-04-07T21:25:51.291Z,101675.50
2023-04-07T21:28:18.058Z,101674.59
2023-04-07T21:30:44.856Z,101680.78
2023-04-07T21:33:13.412Z,101675.50
2023-04-07T21:35:40.345Z,101683.44
2023-04-07T21:38:07.133Z,101679.91
2023-04-07T21:40:33.907Z,101679.00
2023-04-07T21:43:00.712Z,101677.25
2023-04-07T21:45:27.895Z,101676.34
2023-04-07T21:47:54.642Z,101678.13
2023-04-07T21:50:21.436Z,101679.00
2023-04-07T21:52:50.670Z,101678.09
2023-04-07T21:55:21.457Z,101678.94
2023-04-07T21:57:49.982Z,101687.81
2023-04-07T22:00:16.905Z,101679.78
2023-04-07T22:02:43.988Z,101678.91
2023-04-07T22:05:11.208Z,101677.13
2023-04-07T22:07:37.986Z,101681.53
2023-04-07T22:10:05.573Z,101678.03
2023-04-07T22:12:32.309Z,101687.75
2023-04-07T22:14:59.089Z,101683.34
2023-04-07T22:17:25.946Z,101687.72
2023-04-07T22:19:52.776Z,101692.09
2023-04-07T22:22:19.604Z,101692.06
2023-04-07T22:24:46.346Z,101692.88
2023-04-07T22:27:13.137Z,101694.66
2023-04-07T22:29:39.896Z,101699.94
2023-04-07T22:32:06.759Z,101698.16
2023-04-07T22:34:33.552Z,101704.34
2023-04-07T22:37:00.484Z,101709.66
2023-04-07T22:39:27.237Z,101698.16
2023-04-07T22:41:54.029Z,101701.69
2023-04-07T22:44:20.788Z,101703.47
2023-04-07T22:46:47.779Z,101701.69
2023-04-07T22:49:14.612Z,101703.41
2023-04-07T22:51:41.358Z,101699.00
2023-04-07T22:54:08.131Z,101699.84
2023-04-07T22:56:34.896Z,101706.03
2023-04-07T22:59:05.908Z,101704.22
2023-04-07T23:01:33.022Z,101705.97
2023-04-07T23:04:00.004Z,101704.16
2023-04-07T23:06:28.669Z,101708.56
2023-04-07T23:08:55.953Z,101705.03
2023-04-07T23:11:22.807Z,101708.53
2023-04-07T23:13:49.630Z,101708.50
2023-04-07T23:16:16.461Z,101698.75
2023-04-07T23:18:43.395Z,101704.09
2023-04-07T23:21:10.990Z,101710.28
2023-04-07T23:23:38.961Z,101708.50
2023-04-07T23:26:06.744Z,101712.06
2023-04-07T23:28:33.560Z,101712.94
2023-04-07T23:31:01.474Z,101712.94
2023-04-07T23:33:30.421Z,101715.59
2023-04-07T23:35:57.225Z,101719.09
2023-04-07T23:38:24.651Z,101706.69
2023-04-07T23:40:51.402Z,101710.22
2023-04-07T23:43:18.154Z,101703.16
2023-04-07T23:45:44.998Z,101709.38
2023-04-07T23:48:11.761Z,101708.47
2023-04-07T23:50:38.903Z,101704.88
2023-04-07T23:53:06.216Z,101704.06
2023-04-07T23:55:33.113Z,101703.19
2023-04-07T23:57:59.871Z,101705.84
